Terminal Aerodrome Forecast
Issued by NWS Wilmington, OH

Current Version | Previous Version | Graphics & Text | Print | Product List | Glossary On
Versions: 1 2 3 4 5 6 7 8 9 10 11 12 13 14 15 16 17 18 19 20 21 22 23 24 25
000
FTUS41 KILN 130500
TAFDAY
TAF
KDAY 130529Z 1306/1406 20012KT P6SM SCT250
     FM131300 20016G26KT P6SM SCT040 BKN150
     FM131600 21022G32KT P6SM FEW040 BKN150
     FM140000 18018G25KT P6SM BKN120=

USA.gov is the U.S. government's official web portal to all federal, state and local government web resources and services.